sensor_id;sensor_type;location;lat;lon;timestamp;P1;durP1;ratioP1;P2;durP2;ratioP2
15831;SDS011;8016;49.928;9.372;2022-08-27T00:02:09;12.37;;;11.37;;
15831;SDS011;8016;49.928;9.372;2022-08-27T00:04:36;12.20;;;11.20;;
15831;SDS011;8016;49.928;9.372;2022-08-27T00:07:03;12.40;;;11.20;;
15831;SDS011;8016;49.928;9.372;2022-08-27T00:09:29;12.60;;;11.20;;
15831;SDS011;8016;49.928;9.372;2022-08-27T00:11:56;13.10;;;11.90;;
15831;SDS011;8016;49.928;9.372;2022-08-27T00:14:23;13.43;;;12.30;;
15831;SDS011;8016;49.928;9.372;2022-08-27T00:16:49;12.97;;;11.87;;
15831;SDS011;8016;49.928;9.372;2022-08-27T00:19:15;13.20;;;11.90;;
15831;SDS011;8016;49.928;9.372;2022-08-27T00:21:41;13.10;;;12.03;;
15831;SDS011;8016;49.928;9.372;2022-08-27T00:24:07;12.93;;;11.60;;
15831;SDS011;8016;49.928;9.372;2022-08-27T00:26:34;11.67;;;10.67;;
15831;SDS011;8016;49.928;9.372;2022-08-27T00:29:01;11.07;;;10.17;;
15831;SDS011;8016;49.928;9.372;2022-08-27T00:31:27;11.27;;;10.37;;
15831;SDS011;8016;49.928;9.372;2022-08-27T00:33:53;11.63;;;10.73;;
15831;SDS011;8016;49.928;9.372;2022-08-27T00:36:19;11.33;;;10.30;;
15831;SDS011;8016;49.928;9.372;2022-08-27T00:38:45;11.73;;;10.83;;
15831;SDS011;8016;49.928;9.372;2022-08-27T00:41:11;11.83;;;10.77;;
15831;SDS011;8016;49.928;9.372;2022-08-27T00:43:51;13.13;;;11.30;;
15831;SDS011;8016;49.928;9.372;2022-08-27T00:46:25;12.03;;;10.87;;
15831;SDS011;8016;49.928;9.372;2022-08-27T00:48:53;11.57;;;10.47;;
15831;SDS011;8016;49.928;9.372;2022-08-27T00:51:20;12.73;;;11.50;;
15831;SDS011;8016;49.928;9.372;2022-08-27T00:53:47;12.63;;;11.53;;
15831;SDS011;8016;49.928;9.372;2022-08-27T00:56:16;13.47;;;12.03;;
15831;SDS011;8016;49.928;9.372;2022-08-27T00:58:44;13.60;;;12.50;;
15831;SDS011;8016;49.928;9.372;2022-08-27T01:01:11;15.03;;;12.87;;
15831;SDS011;8016;49.928;9.372;2022-08-27T01:03:38;13.23;;;12.13;;
15831;SDS011;8016;49.928;9.372;2022-08-27T01:06:04;14.20;;;12.73;;
15831;SDS011;8016;49.928;9.372;2022-08-27T01:08:35;13.73;;;12.33;;
15831;SDS011;8016;49.928;9.372;2022-08-27T01:11:02;12.60;;;11.60;;
15831;SDS011;8016;49.928;9.372;2022-08-27T01:13:29;14.00;;;12.70;;
15831;SDS011;8016;49.928;9.372;2022-08-27T01:15:56;13.43;;;12.13;;
15831;SDS011;8016;49.928;9.372;2022-08-27T01:18:24;13.00;;;11.70;;
15831;SDS011;8016;49.928;9.372;2022-08-27T01:20:55;13.87;;;12.57;;
15831;SDS011;8016;49.928;9.372;2022-08-27T01:25:47;13.93;;;12.63;;
15831;SDS011;8016;49.928;9.372;2022-08-27T01:28:14;13.40;;;12.10;;
15831;SDS011;8016;49.928;9.372;2022-08-27T01:30:40;15.20;;;12.63;;
15831;SDS011;8016;49.928;9.372;2022-08-27T01:33:07;13.73;;;12.43;;
15831;SDS011;8016;49.928;9.372;2022-08-27T01:35:34;13.37;;;11.97;;
15831;SDS011;8016;49.928;9.372;2022-08-27T01:38:00;14.17;;;12.77;;
15831;SDS011;8016;49.928;9.372;2022-08-27T01:40:26;13.03;;;11.93;;
15831;SDS011;8016;49.928;9.372;2022-08-27T01:42:52;13.80;;;12.60;;
15831;SDS011;8016;49.928;9.372;2022-08-27T01:45:25;15.10;;;12.60;;
15831;SDS011;8016;49.928;9.372;2022-08-27T01:47:51;14.80;;;13.40;;
15831;SDS011;8016;49.928;9.372;2022-08-27T01:50:19;13.80;;;12.40;;
15831;SDS011;8016;49.928;9.372;2022-08-27T01:52:45;21.03;;;13.30;;
15831;SDS011;8016;49.928;9.372;2022-08-27T01:55:13;19.27;;;13.17;;
15831;SDS011;8016;49.928;9.372;2022-08-27T01:57:40;16.13;;;14.70;;
15831;SDS011;8016;49.928;9.372;2022-08-27T02:00:09;22.70;;;18.27;;
15831;SDS011;8016;49.928;9.372;2022-08-27T02:02:36;24.33;;;21.83;;
15831;SDS011;8016;49.928;9.372;2022-08-27T02:05:02;25.10;;;22.27;;
15831;SDS011;8016;49.928;9.372;2022-08-27T02:07:28;15.53;;;14.10;;
15831;SDS011;8016;49.928;9.372;2022-08-27T02:09:54;16.13;;;14.73;;
15831;SDS011;8016;49.928;9.372;2022-08-27T02:12:20;21.47;;;18.43;;
15831;SDS011;8016;49.928;9.372;2022-08-27T02:14:46;22.10;;;20.00;;
15831;SDS011;8016;49.928;9.372;2022-08-27T02:17:12;21.37;;;19.10;;
15831;SDS011;8016;49.928;9.372;2022-08-27T02:19:38;21.43;;;19.53;;
15831;SDS011;8016;49.928;9.372;2022-08-27T02:22:04;19.13;;;17.23;;
15831;SDS011;8016;49.928;9.372;2022-08-27T02:24:30;21.80;;;19.47;;
15831;SDS011;8016;49.928;9.372;2022-08-27T02:26:56;24.17;;;21.63;;
15831;SDS011;8016;49.928;9.372;2022-08-27T02:29:22;21.37;;;19.43;;
15831;SDS011;8016;49.928;9.372;2022-08-27T02:31:48;26.47;;;23.57;;
15831;SDS011;8016;49.928;9.372;2022-08-27T02:34:14;33.40;;;29.97;;
15831;SDS011;8016;49.928;9.372;2022-08-27T02:36:41;42.23;;;28.17;;
15831;SDS011;8016;49.928;9.372;2022-08-27T02:39:07;28.80;;;25.73;;
15831;SDS011;8016;49.928;9.372;2022-08-27T02:41:33;28.43;;;25.17;;
15831;SDS011;8016;49.928;9.372;2022-08-27T02:44:00;32.00;;;28.60;;
15831;SDS011;8016;49.928;9.372;2022-08-27T02:46:26;28.20;;;25.33;;
15831;SDS011;8016;49.928;9.372;2022-08-27T02:48:52;32.67;;;28.37;;
15831;SDS011;8016;49.928;9.372;2022-08-27T02:51:18;31.10;;;27.17;;
15831;SDS011;8016;49.928;9.372;2022-08-27T02:53:44;28.90;;;25.90;;
15831;SDS011;8016;49.928;9.372;2022-08-27T02:56:10;29.53;;;26.33;;
15831;SDS011;8016;49.928;9.372;2022-08-27T02:58:36;34.93;;;26.20;;
15831;SDS011;8016;49.928;9.372;2022-08-27T03:01:02;23.17;;;20.83;;
15831;SDS011;8016;49.928;9.372;2022-08-27T03:03:29;24.73;;;22.03;;
15831;SDS011;8016;49.928;9.372;2022-08-27T03:05:55;22.37;;;19.63;;
15831;SDS011;8016;49.928;9.372;2022-08-27T03:08:22;20.90;;;18.87;;
15831;SDS011;8016;49.928;9.372;2022-08-27T03:10:48;26.17;;;19.53;;
15831;SDS011;8016;49.928;9.372;2022-08-27T03:13:15;19.37;;;17.37;;
15831;SDS011;8016;49.928;9.372;2022-08-27T03:15:41;19.97;;;18.00;;
15831;SDS011;8016;49.928;9.372;2022-08-27T03:18:07;22.13;;;19.93;;
15831;SDS011;8016;49.928;9.372;2022-08-27T03:20:47;21.33;;;19.33;;
15831;SDS011;8016;49.928;9.372;2022-08-27T03:23:14;20.40;;;18.57;;
15831;SDS011;8016;49.928;9.372;2022-08-27T03:25:45;19.30;;;17.40;;
15831;SDS011;8016;49.928;9.372;2022-08-27T03:28:15;20.37;;;18.27;;
15831;SDS011;8016;49.928;9.372;2022-08-27T03:30:41;23.10;;;20.90;;
15831;SDS011;8016;49.928;9.372;2022-08-27T03:33:10;26.80;;;24.27;;
15831;SDS011;8016;49.928;9.372;2022-08-27T03:35:36;26.90;;;24.23;;
15831;SDS011;8016;49.928;9.372;2022-08-27T03:38:02;35.53;;;31.73;;
15831;SDS011;8016;49.928;9.372;2022-08-27T03:40:28;33.13;;;29.47;;
15831;SDS011;8016;49.928;9.372;2022-08-27T03:42:54;31.47;;;28.27;;
15831;SDS011;8016;49.928;9.372;2022-08-27T03:45:20;33.70;;;30.10;;
15831;SDS011;8016;49.928;9.372;2022-08-27T03:47:46;45.83;;;38.83;;
15831;SDS011;8016;49.928;9.372;2022-08-27T03:50:12;41.70;;;37.43;;
15831;SDS011;8016;49.928;9.372;2022-08-27T03:52:38;39.93;;;35.90;;
15831;SDS011;8016;49.928;9.372;2022-08-27T03:55:05;38.63;;;34.60;;
15831;SDS011;8016;49.928;9.372;2022-08-27T03:57:31;37.97;;;34.10;;
15831;SDS011;8016;49.928;9.372;2022-08-27T03:59:57;36.53;;;32.70;;
15831;SDS011;8016;49.928;9.372;2022-08-27T04:02:25;36.83;;;32.90;;
15831;SDS011;8016;49.928;9.372;2022-08-27T04:04:51;36.27;;;29.90;;
15831;SDS011;8016;49.928;9.372;2022-08-27T04:07:17;35.77;;;32.10;;
15831;SDS011;8016;49.928;9.372;2022-08-27T04:09:43;34.07;;;30.53;;
15831;SDS011;8016;49.928;9.372;2022-08-27T04:12:09;33.17;;;29.67;;
15831;SDS011;8016;49.928;9.372;2022-08-27T04:14:35;33.07;;;29.77;;
15831;SDS011;8016;49.928;9.372;2022-08-27T04:17:01;34.37;;;29.30;;
15831;SDS011;8016;49.928;9.372;2022-08-27T04:19:27;31.23;;;27.97;;
15831;SDS011;8016;49.928;9.372;2022-08-27T04:21:57;29.83;;;26.83;;
15831;SDS011;8016;49.928;9.372;2022-08-27T04:24:24;27.47;;;24.60;;
15831;SDS011;8016;49.928;9.372;2022-08-27T04:26:50;28.03;;;25.13;;
15831;SDS011;8016;49.928;9.372;2022-08-27T04:29:16;27.60;;;24.53;;
15831;SDS011;8016;49.928;9.372;2022-08-27T04:31:42;28.27;;;25.43;;
15831;SDS011;8016;49.928;9.372;2022-08-27T04:34:08;27.57;;;24.73;;
15831;SDS011;8016;49.928;9.372;2022-08-27T04:36:34;31.77;;;27.37;;
15831;SDS011;8016;49.928;9.372;2022-08-27T04:39:00;28.60;;;25.30;;
15831;SDS011;8016;49.928;9.372;2022-08-27T04:41:27;31.60;;;28.47;;
15831;SDS011;8016;49.928;9.372;2022-08-27T04:43:57;37.60;;;26.80;;
15831;SDS011;8016;49.928;9.372;2022-08-27T04:48:50;29.70;;;26.53;;
15831;SDS011;8016;49.928;9.372;2022-08-27T04:51:17;31.60;;;28.20;;
15831;SDS011;8016;49.928;9.372;2022-08-27T04:53:43;27.03;;;24.20;;
15831;SDS011;8016;49.928;9.372;2022-08-27T04:56:12;27.70;;;23.67;;
15831;SDS011;8016;49.928;9.372;2022-08-27T04:58:39;24.67;;;22.13;;
15831;SDS011;8016;49.928;9.372;2022-08-27T05:01:05;25.30;;;22.70;;
15831;SDS011;8016;49.928;9.372;2022-08-27T05:03:31;27.27;;;24.43;;
15831;SDS011;8016;49.928;9.372;2022-08-27T05:05:59;28.17;;;25.20;;
15831;SDS011;8016;49.928;9.372;2022-08-27T05:08:25;30.40;;;27.17;;
15831;SDS011;8016;49.928;9.372;2022-08-27T05:10:51;30.20;;;26.97;;
15831;SDS011;8016;49.928;9.372;2022-08-27T05:13:18;33.60;;;29.33;;
15831;SDS011;8016;49.928;9.372;2022-08-27T05:15:44;34.43;;;30.67;;
15831;SDS011;8016;49.928;9.372;2022-08-27T05:18:11;34.30;;;30.53;;
15831;SDS011;8016;49.928;9.372;2022-08-27T05:20:41;32.90;;;29.63;;
15831;SDS011;8016;49.928;9.372;2022-08-27T05:23:07;33.10;;;29.93;;
15831;SDS011;8016;49.928;9.372;2022-08-27T05:25:36;33.43;;;29.90;;
15831;SDS011;8016;49.928;9.372;2022-08-27T05:28:02;33.80;;;30.57;;
15831;SDS011;8016;49.928;9.372;2022-08-27T05:30:28;33.37;;;29.97;;
15831;SDS011;8016;49.928;9.372;2022-08-27T05:32:54;30.00;;;27.07;;
15831;SDS011;8016;49.928;9.372;2022-08-27T05:35:20;29.20;;;26.20;;
15831;SDS011;8016;49.928;9.372;2022-08-27T05:37:47;29.93;;;27.07;;
15831;SDS011;8016;49.928;9.372;2022-08-27T05:40:13;30.63;;;27.63;;
15831;SDS011;8016;49.928;9.372;2022-08-27T05:42:39;30.50;;;27.00;;
15831;SDS011;8016;49.928;9.372;2022-08-27T05:45:07;27.57;;;23.97;;
15831;SDS011;8016;49.928;9.372;2022-08-27T05:47:34;28.97;;;26.07;;
15831;SDS011;8016;49.928;9.372;2022-08-27T05:50:00;26.23;;;23.57;;
15831;SDS011;8016;49.928;9.372;2022-08-27T05:52:27;25.57;;;23.07;;
15831;SDS011;8016;49.928;9.372;2022-08-27T05:54:53;26.30;;;21.70;;
15831;SDS011;8016;49.928;9.372;2022-08-27T05:57:19;25.20;;;22.60;;
15831;SDS011;8016;49.928;9.372;2022-08-27T05:59:45;24.63;;;22.43;;
15831;SDS011;8016;49.928;9.372;2022-08-27T06:02:30;23.33;;;21.43;;
15831;SDS011;8016;49.928;9.372;2022-08-27T06:04:56;24.67;;;22.00;;
15831;SDS011;8016;49.928;9.372;2022-08-27T06:07:22;22.43;;;20.17;;
15831;SDS011;8016;49.928;9.372;2022-08-27T06:09:48;25.00;;;22.60;;
15831;SDS011;8016;49.928;9.372;2022-08-27T06:12:14;23.20;;;20.93;;
15831;SDS011;8016;49.928;9.372;2022-08-27T06:14:40;24.17;;;22.00;;
15831;SDS011;8016;49.928;9.372;2022-08-27T06:17:06;24.93;;;22.30;;
15831;SDS011;8016;49.928;9.372;2022-08-27T06:19:32;23.17;;;21.03;;
15831;SDS011;8016;49.928;9.372;2022-08-27T06:22:00;24.07;;;21.57;;
15831;SDS011;8016;49.928;9.372;2022-08-27T06:24:27;23.10;;;20.83;;
15831;SDS011;8016;49.928;9.372;2022-08-27T06:26:53;23.10;;;20.27;;
15831;SDS011;8016;49.928;9.372;2022-08-27T06:29:19;22.13;;;20.00;;
15831;SDS011;8016;49.928;9.372;2022-08-27T06:31:45;20.07;;;18.13;;
15831;SDS011;8016;49.928;9.372;2022-08-27T06:34:14;20.43;;;18.43;;
15831;SDS011;8016;49.928;9.372;2022-08-27T06:36:40;20.50;;;18.47;;
15831;SDS011;8016;49.928;9.372;2022-08-27T06:39:07;17.90;;;15.90;;
15831;SDS011;8016;49.928;9.372;2022-08-27T06:41:37;19.47;;;14.97;;
15831;SDS011;8016;49.928;9.372;2022-08-27T06:44:03;18.47;;;13.40;;
15831;SDS011;8016;49.928;9.372;2022-08-27T06:46:29;15.33;;;13.63;;
15831;SDS011;8016;49.928;9.372;2022-08-27T06:48:57;17.23;;;13.43;;
15831;SDS011;8016;49.928;9.372;2022-08-27T06:51:27;13.70;;;12.30;;
15831;SDS011;8016;49.928;9.372;2022-08-27T06:53:54;15.83;;;13.33;;
15831;SDS011;8016;49.928;9.372;2022-08-27T06:56:21;15.13;;;12.00;;
15831;SDS011;8016;49.928;9.372;2022-08-27T06:58:47;13.57;;;11.87;;
15831;SDS011;8016;49.928;9.372;2022-08-27T07:01:18;16.50;;;12.90;;
15831;SDS011;8016;49.928;9.372;2022-08-27T07:03:44;16.00;;;12.73;;
15831;SDS011;8016;49.928;9.372;2022-08-27T07:06:11;14.63;;;11.27;;
15831;SDS011;8016;49.928;9.372;2022-08-27T07:08:38;13.03;;;11.70;;
15831;SDS011;8016;49.928;9.372;2022-08-27T07:11:05;15.70;;;11.53;;
15831;SDS011;8016;49.928;9.372;2022-08-27T07:13:32;15.13;;;11.73;;
15831;SDS011;8016;49.928;9.372;2022-08-27T07:15:58;12.90;;;11.53;;
15831;SDS011;8016;49.928;9.372;2022-08-27T07:18:25;15.57;;;12.50;;
15831;SDS011;8016;49.928;9.372;2022-08-27T07:20:51;18.20;;;12.73;;
15831;SDS011;8016;49.928;9.372;2022-08-27T07:23:18;11.30;;;10.17;;
15831;SDS011;8016;49.928;9.372;2022-08-27T07:25:44;13.73;;;11.63;;
15831;SDS011;8016;49.928;9.372;2022-08-27T07:28:10;17.57;;;10.73;;
15831;SDS011;8016;49.928;9.372;2022-08-27T07:30:36;13.63;;;10.33;;
15831;SDS011;8016;49.928;9.372;2022-08-27T07:33:02;11.33;;;10.17;;
15831;SDS011;8016;49.928;9.372;2022-08-27T07:35:29;16.63;;;10.97;;
15831;SDS011;8016;49.928;9.372;2022-08-27T07:37:55;12.83;;;10.27;;
15831;SDS011;8016;49.928;9.372;2022-08-27T07:40:22;12.10;;;10.43;;
15831;SDS011;8016;49.928;9.372;2022-08-27T07:42:48;15.37;;;10.23;;
15831;SDS011;8016;49.928;9.372;2022-08-27T07:45:32;12.90;;;10.23;;
15831;SDS011;8016;49.928;9.372;2022-08-27T07:47:59;10.53;;;9.43;;
15831;SDS011;8016;49.928;9.372;2022-08-27T07:50:25;10.60;;;9.50;;
15831;SDS011;8016;49.928;9.372;2022-08-27T07:52:51;11.17;;;10.00;;
15831;SDS011;8016;49.928;9.372;2022-08-27T07:55:17;12.00;;;9.30;;
15831;SDS011;8016;49.928;9.372;2022-08-27T07:57:43;11.50;;;8.93;;
15831;SDS011;8016;49.928;9.372;2022-08-27T08:00:11;14.50;;;9.67;;
15831;SDS011;8016;49.928;9.372;2022-08-27T08:02:38;10.57;;;8.23;;
15831;SDS011;8016;49.928;9.372;2022-08-27T08:05:06;10.93;;;9.47;;
15831;SDS011;8016;49.928;9.372;2022-08-27T08:07:32;9.57;;;8.13;;
15831;SDS011;8016;49.928;9.372;2022-08-27T08:09:58;12.03;;;8.57;;
15831;SDS011;8016;49.928;9.372;2022-08-27T08:12:24;10.23;;;9.17;;
15831;SDS011;8016;49.928;9.372;2022-08-27T08:14:51;9.83;;;8.27;;
15831;SDS011;8016;49.928;9.372;2022-08-27T08:17:21;12.40;;;9.00;;
15831;SDS011;8016;49.928;9.372;2022-08-27T08:19:48;11.17;;;7.90;;
15831;SDS011;8016;49.928;9.372;2022-08-27T08:22:14;11.57;;;8.40;;
15831;SDS011;8016;49.928;9.372;2022-08-27T08:24:40;9.57;;;7.97;;
15831;SDS011;8016;49.928;9.372;2022-08-27T08:27:06;11.80;;;8.97;;
15831;SDS011;8016;49.928;9.372;2022-08-27T08:29:32;10.87;;;8.33;;
15831;SDS011;8016;49.928;9.372;2022-08-27T08:31:59;11.73;;;8.73;;
15831;SDS011;8016;49.928;9.372;2022-08-27T08:34:25;9.10;;;8.20;;
15831;SDS011;8016;49.928;9.372;2022-08-27T08:36:52;9.73;;;8.07;;
15831;SDS011;8016;49.928;9.372;2022-08-27T08:39:22;12.57;;;7.80;;
15831;SDS011;8016;49.928;9.372;2022-08-27T08:41:49;10.30;;;8.40;;
15831;SDS011;8016;49.928;9.372;2022-08-27T08:46:47;8.27;;;7.47;;
15831;SDS011;8016;49.928;9.372;2022-08-27T08:51:43;9.07;;;7.70;;
15831;SDS011;8016;49.928;9.372;2022-08-27T08:54:13;8.70;;;7.53;;
15831;SDS011;8016;49.928;9.372;2022-08-27T08:59:25;10.37;;;6.70;;
15831;SDS011;8016;49.928;9.372;2022-08-27T09:01:52;10.57;;;7.43;;
15831;SDS011;8016;49.928;9.372;2022-08-27T09:04:18;10.80;;;7.43;;
15831;SDS011;8016;49.928;9.372;2022-08-27T09:06:59;7.97;;;7.17;;
15831;SDS011;8016;49.928;9.372;2022-08-27T09:09:28;8.53;;;5.93;;
15831;SDS011;8016;49.928;9.372;2022-08-27T09:11:58;9.00;;;6.47;;
15831;SDS011;8016;49.928;9.372;2022-08-27T09:14:37;7.90;;;7.07;;
15831;SDS011;8016;49.928;9.372;2022-08-27T09:17:05;12.57;;;6.90;;
15831;SDS011;8016;49.928;9.372;2022-08-27T09:19:31;7.43;;;6.60;;
15831;SDS011;8016;49.928;9.372;2022-08-27T09:22:00;7.57;;;6.50;;
15831;SDS011;8016;49.928;9.372;2022-08-27T09:27:00;10.53;;;7.17;;
15831;SDS011;8016;49.928;9.372;2022-08-27T09:29:27;8.20;;;6.17;;
15831;SDS011;8016;49.928;9.372;2022-08-27T09:31:55;6.90;;;6.20;;
15831;SDS011;8016;49.928;9.372;2022-08-27T09:34:22;7.80;;;6.37;;
15831;SDS011;8016;49.928;9.372;2022-08-27T09:39:28;10.60;;;6.60;;
15831;SDS011;8016;49.928;9.372;2022-08-27T09:41:56;9.87;;;7.37;;
15831;SDS011;8016;49.928;9.372;2022-08-27T09:44:22;10.07;;;7.33;;
15831;SDS011;8016;49.928;9.372;2022-08-27T09:46:59;9.10;;;6.77;;
15831;SDS011;8016;49.928;9.372;2022-08-27T09:49:26;9.93;;;7.30;;
15831;SDS011;8016;49.928;9.372;2022-08-27T09:51:52;7.73;;;6.77;;
15831;SDS011;8016;49.928;9.372;2022-08-27T09:56:50;8.00;;;6.30;;
15831;SDS011;8016;49.928;9.372;2022-08-27T10:01:53;11.30;;;6.00;;
15831;SDS011;8016;49.928;9.372;2022-08-27T10:04:25;6.70;;;5.63;;
15831;SDS011;8016;49.928;9.372;2022-08-27T10:06:52;8.97;;;5.50;;
15831;SDS011;8016;49.928;9.372;2022-08-27T10:09:24;6.00;;;5.47;;
15831;SDS011;8016;49.928;9.372;2022-08-27T10:14:49;6.57;;;5.43;;
15831;SDS011;8016;49.928;9.372;2022-08-27T10:17:32;6.27;;;5.13;;
15831;SDS011;8016;49.928;9.372;2022-08-27T10:38:23;5.67;;;5.07;;
15831;SDS011;8016;49.928;9.372;2022-08-27T10:41:00;7.00;;;4.67;;
15831;SDS011;8016;49.928;9.372;2022-08-27T10:48:39;6.40;;;4.53;;
15831;SDS011;8016;49.928;9.372;2022-08-27T10:51:14;5.80;;;4.63;;
15831;SDS011;8016;49.928;9.372;2022-08-27T10:58:55;5.00;;;4.50;;
15831;SDS011;8016;49.928;9.372;2022-08-27T11:03:53;5.50;;;4.33;;
15831;SDS011;8016;49.928;9.372;2022-08-27T11:06:25;4.80;;;4.23;;
15831;SDS011;8016;49.928;9.372;2022-08-27T11:08:54;5.90;;;4.20;;
15831;SDS011;8016;49.928;9.372;2022-08-27T11:11:27;7.03;;;4.87;;
15831;SDS011;8016;49.928;9.372;2022-08-27T11:13:56;6.30;;;4.60;;
15831;SDS011;8016;49.928;9.372;2022-08-27T11:16:24;6.83;;;5.00;;
15831;SDS011;8016;49.928;9.372;2022-08-27T11:18:56;6.67;;;4.60;;
15831;SDS011;8016;49.928;9.372;2022-08-27T11:21:30;5.63;;;5.13;;
15831;SDS011;8016;49.928;9.372;2022-08-27T11:24:03;5.13;;;4.60;;
15831;SDS011;8016;49.928;9.372;2022-08-27T11:26:32;6.13;;;4.97;;
15831;SDS011;8016;49.928;9.372;2022-08-27T11:29:00;5.30;;;4.50;;
15831;SDS011;8016;49.928;9.372;2022-08-27T11:31:36;8.00;;;6.63;;
15831;SDS011;8016;49.928;9.372;2022-08-27T11:34:09;7.20;;;6.47;;
15831;SDS011;8016;49.928;9.372;2022-08-27T11:36:47;9.43;;;5.87;;
15831;SDS011;8016;49.928;9.372;2022-08-27T11:42:22;6.47;;;4.73;;
15831;SDS011;8016;49.928;9.372;2022-08-27T11:44:56;4.97;;;4.47;;
15831;SDS011;8016;49.928;9.372;2022-08-27T11:47:24;4.90;;;4.50;;
15831;SDS011;8016;49.928;9.372;2022-08-27T11:49:52;4.83;;;4.30;;
15831;SDS011;8016;49.928;9.372;2022-08-27T11:52:38;6.93;;;4.23;;
15831;SDS011;8016;49.928;9.372;2022-08-27T11:58:01;4.53;;;4.13;;
15831;SDS011;8016;49.928;9.372;2022-08-27T12:00:30;4.50;;;3.50;;
15831;SDS011;8016;49.928;9.372;2022-08-27T12:05:43;5.70;;;3.83;;
15831;SDS011;8016;49.928;9.372;2022-08-27T12:13:40;4.70;;;4.00;;
15831;SDS011;8016;49.928;9.372;2022-08-27T12:16:15;6.23;;;4.07;;
15831;SDS011;8016;49.928;9.372;2022-08-27T12:21:28;5.07;;;4.43;;
15831;SDS011;8016;49.928;9.372;2022-08-27T12:31:36;4.73;;;4.20;;
15831;SDS011;8016;49.928;9.372;2022-08-27T12:34:04;4.60;;;4.00;;
15831;SDS011;8016;49.928;9.372;2022-08-27T12:36:30;4.60;;;4.20;;
15831;SDS011;8016;49.928;9.372;2022-08-27T12:38:58;4.53;;;4.13;;
15831;SDS011;8016;49.928;9.372;2022-08-27T12:41:28;5.20;;;4.70;;
15831;SDS011;8016;49.928;9.372;2022-08-27T12:44:30;5.10;;;4.60;;
15831;SDS011;8016;49.928;9.372;2022-08-27T12:46:51;7.93;;;4.83;;
15831;SDS011;8016;49.928;9.372;2022-08-27T12:49:23;5.70;;;4.40;;
15831;SDS011;8016;49.928;9.372;2022-08-27T12:51:51;6.47;;;4.63;;
15831;SDS011;8016;49.928;9.372;2022-08-27T12:59:44;5.60;;;5.10;;
15831;SDS011;8016;49.928;9.372;2022-08-27T13:02:16;5.33;;;4.50;;
15831;SDS011;8016;49.928;9.372;2022-08-27T13:04:47;5.33;;;4.87;;
15831;SDS011;8016;49.928;9.372;2022-08-27T13:07:30;4.77;;;4.37;;
15831;SDS011;8016;49.928;9.372;2022-08-27T13:10:07;4.67;;;4.27;;
15831;SDS011;8016;49.928;9.372;2022-08-27T13:12:33;5.37;;;4.43;;
15831;SDS011;8016;49.928;9.372;2022-08-27T13:15:04;5.13;;;4.37;;
15831;SDS011;8016;49.928;9.372;2022-08-27T13:17:35;4.77;;;3.93;;
15831;SDS011;8016;49.928;9.372;2022-08-27T13:20:01;5.50;;;4.60;;
15831;SDS011;8016;49.928;9.372;2022-08-27T13:24:54;6.37;;;4.77;;
15831;SDS011;8016;49.928;9.372;2022-08-27T13:27:24;5.07;;;4.57;;
15831;SDS011;8016;49.928;9.372;2022-08-27T13:29:50;4.57;;;4.17;;
15831;SDS011;8016;49.928;9.372;2022-08-27T13:32:17;4.70;;;4.40;;
15831;SDS011;8016;49.928;9.372;2022-08-27T13:34:43;6.30;;;4.40;;
15831;SDS011;8016;49.928;9.372;2022-08-27T13:37:43;5.47;;;4.93;;
15831;SDS011;8016;49.928;9.372;2022-08-27T13:40:01;4.90;;;4.13;;
15831;SDS011;8016;49.928;9.372;2022-08-27T13:42:27;5.00;;;4.43;;
15831;SDS011;8016;49.928;9.372;2022-08-27T13:44:54;5.83;;;4.60;;
15831;SDS011;8016;49.928;9.372;2022-08-27T13:47:25;5.47;;;4.30;;
15831;SDS011;8016;49.928;9.372;2022-08-27T13:50:06;5.00;;;4.50;;
15831;SDS011;8016;49.928;9.372;2022-08-27T13:52:33;5.50;;;4.67;;
15831;SDS011;8016;49.928;9.372;2022-08-27T13:57:31;6.93;;;4.60;;
15831;SDS011;8016;49.928;9.372;2022-08-27T14:00:23;7.53;;;5.00;;
15831;SDS011;8016;49.928;9.372;2022-08-27T14:02:51;5.30;;;4.80;;
15831;SDS011;8016;49.928;9.372;2022-08-27T14:07:57;6.40;;;5.90;;
15831;SDS011;8016;49.928;9.372;2022-08-27T14:10:34;5.20;;;4.70;;
15831;SDS011;8016;49.928;9.372;2022-08-27T14:13:02;6.40;;;5.07;;
15831;SDS011;8016;49.928;9.372;2022-08-27T14:17:56;5.80;;;5.23;;
15831;SDS011;8016;49.928;9.372;2022-08-27T14:20:22;7.37;;;4.77;;
15831;SDS011;8016;49.928;9.372;2022-08-27T14:22:48;7.23;;;4.80;;
15831;SDS011;8016;49.928;9.372;2022-08-27T14:25:15;6.93;;;4.83;;
15831;SDS011;8016;49.928;9.372;2022-08-27T14:27:42;7.33;;;4.87;;
15831;SDS011;8016;49.928;9.372;2022-08-27T14:30:10;4.70;;;4.30;;
15831;SDS011;8016;49.928;9.372;2022-08-27T14:32:36;5.47;;;4.90;;
15831;SDS011;8016;49.928;9.372;2022-08-27T14:35:03;8.07;;;4.70;;
15831;SDS011;8016;49.928;9.372;2022-08-27T14:37:30;7.67;;;5.17;;
15831;SDS011;8016;49.928;9.372;2022-08-27T14:39:56;6.20;;;4.70;;
15831;SDS011;8016;49.928;9.372;2022-08-27T14:42:22;5.67;;;5.03;;
15831;SDS011;8016;49.928;9.372;2022-08-27T14:44:48;8.30;;;5.10;;
15831;SDS011;8016;49.928;9.372;2022-08-27T14:47:14;7.30;;;5.07;;
15831;SDS011;8016;49.928;9.372;2022-08-27T14:49:41;6.93;;;4.80;;
15831;SDS011;8016;49.928;9.372;2022-08-27T14:52:08;6.83;;;5.00;;
15831;SDS011;8016;49.928;9.372;2022-08-27T14:54:35;5.47;;;4.97;;
15831;SDS011;8016;49.928;9.372;2022-08-27T14:57:02;6.70;;;5.30;;
15831;SDS011;8016;49.928;9.372;2022-08-27T14:59:29;6.80;;;5.40;;
15831;SDS011;8016;49.928;9.372;2022-08-27T15:01:56;6.63;;;5.90;;
15831;SDS011;8016;49.928;9.372;2022-08-27T15:04:22;7.30;;;5.17;;
15831;SDS011;8016;49.928;9.372;2022-08-27T15:06:48;6.50;;;5.80;;
15831;SDS011;8016;49.928;9.372;2022-08-27T15:09:14;7.23;;;5.63;;
15831;SDS011;8016;49.928;9.372;2022-08-27T15:11:40;5.70;;;5.20;;
15831;SDS011;8016;49.928;9.372;2022-08-27T15:14:10;7.10;;;5.77;;
15831;SDS011;8016;49.928;9.372;2022-08-27T15:16:38;6.63;;;5.63;;
15831;SDS011;8016;49.928;9.372;2022-08-27T15:19:05;6.20;;;5.53;;
15831;SDS011;8016;49.928;9.372;2022-08-27T15:21:32;6.30;;;5.70;;
15831;SDS011;8016;49.928;9.372;2022-08-27T15:23:59;5.80;;;5.17;;
15831;SDS011;8016;49.928;9.372;2022-08-27T15:26:26;5.03;;;4.53;;
15831;SDS011;8016;49.928;9.372;2022-08-27T15:28:52;6.17;;;5.57;;
15831;SDS011;8016;49.928;9.372;2022-08-27T15:31:19;6.30;;;5.50;;
15831;SDS011;8016;49.928;9.372;2022-08-27T15:33:45;5.90;;;5.37;;
15831;SDS011;8016;49.928;9.372;2022-08-27T15:36:11;6.60;;;5.47;;
15831;SDS011;8016;49.928;9.372;2022-08-27T15:38:38;6.03;;;5.40;;
15831;SDS011;8016;49.928;9.372;2022-08-27T15:41:04;7.77;;;6.03;;
15831;SDS011;8016;49.928;9.372;2022-08-27T15:43:30;6.40;;;5.80;;
15831;SDS011;8016;49.928;9.372;2022-08-27T15:45:56;5.97;;;5.27;;
15831;SDS011;8016;49.928;9.372;2022-08-27T15:48:23;6.37;;;5.83;;
15831;SDS011;8016;49.928;9.372;2022-08-27T15:50:49;6.47;;;5.73;;
15831;SDS011;8016;49.928;9.372;2022-08-27T15:53:15;6.23;;;5.73;;
15831;SDS011;8016;49.928;9.372;2022-08-27T15:55:43;8.37;;;5.73;;
15831;SDS011;8016;49.928;9.372;2022-08-27T15:58:09;7.17;;;5.70;;
15831;SDS011;8016;49.928;9.372;2022-08-27T16:00:36;7.43;;;5.73;;
15831;SDS011;8016;49.928;9.372;2022-08-27T16:03:04;6.17;;;5.10;;
15831;SDS011;8016;49.928;9.372;2022-08-27T16:05:32;6.27;;;5.63;;
15831;SDS011;8016;49.928;9.372;2022-08-27T16:07:59;7.13;;;6.00;;
15831;SDS011;8016;49.928;9.372;2022-08-27T16:10:25;5.97;;;5.47;;
15831;SDS011;8016;49.928;9.372;2022-08-27T16:12:51;8.80;;;6.50;;
15831;SDS011;8016;49.928;9.372;2022-08-27T16:15:17;6.50;;;5.90;;
15831;SDS011;8016;49.928;9.372;2022-08-27T16:17:43;7.03;;;6.13;;
15831;SDS011;8016;49.928;9.372;2022-08-27T16:20:10;6.70;;;6.07;;
15831;SDS011;8016;49.928;9.372;2022-08-27T16:22:36;5.97;;;5.37;;
15831;SDS011;8016;49.928;9.372;2022-08-27T16:25:03;6.43;;;5.83;;
15831;SDS011;8016;49.928;9.372;2022-08-27T16:27:29;6.97;;;6.27;;